Roatan International, Honduras

8:35 PM CST on April 25, 2017 (GMT -0600)
Roatan International | | Change Station

Elev 16 ft 16.32 °N, 86.53 °W | Updated 35 minutes ago

Clear
Clear
82 °F
Feels Like 90 °F
N
28
Wind Variable Wind from East

Today
High -- | Low -- °F
--% Chance of Precip.
Yesterday
High -- | Low -- °F
Precip. -- in
Pressure 29.80 in
Visibility -9999.0 miles
Clouds
Heat Index 90 °F
Dew Point 75 °F
Humidity 79%
Rainfall 0.00 in
Snow Depth Not available.
5:24 AM 6:03 PM
Waning Crescent, 0% visible
METAR MHRO 260200Z 08024KT CAVOK 28/24 Q1009 A2980 NOSIG
Pressure 29.80 in
Visibility -9999.0 miles
Clouds
Heat Index 90 °F
Dew Point 75 °F
Humidity 79%
Rainfall 0.00 in
Snow Depth Not available.
5:24 AM 6:03 PM
Waning Crescent, 0% visible
METAR MHRO 260200Z 08024KT CAVOK 28/24 Q1009 A2980 NOSIG

Get Severe Weather Alerts

Thanks for signing up!

Be on the lookout for a verification email in your inbox.

You'll start receiving the daily forecast at 8 AM.

×

10-Day Weather Forecast

No radar image for this location.
×

Almanac

Astronomy

Apr. 25, 2017 Rise Set
Actual Time
Civil Twilight
Nautical Twilight
Astronomical Twilight
Moon
Length of Visible Light
Length of Day
Tomorrow will be .
, % of the Moon is Illuminated

Today's Extremes

Country Highs Country Lows

Community

WunderPhotos

WunderBlog® & News

Nearby

Air Quality

  Air Quality AQ Index Pollutant
Not available.

Snow Depth

Station Depth Elevation

Earthquake Activity

City Distance Mag. Time & Date
Minimum magnitude displayed is 2.5.

Coastal Water Temperatures

Place Temperature

Stations

Nearby Weather Stations

Station Location Temp. Windchill Dew Point Humidity Wind Precip. Elev Updated Type